Three Rivers, New Mexico
Current Conditions -  °F | °C
As of 9:58 AM on Thursday 30 Oct 2014 (Local Time) from KHMN Reporting Station
Clear Clear  
Wind Chill: 59°   Ceiling: Unl
Heat Index: 59°   Visibility: 10mi
Dew Point: 37°   Wind: 2mph
Humidity: 43%   Direction: 180°S
Pressure: 30.25"   Gusts: NA
Location:  33.1487°N, 106.136°W
Report Text: KHMN 301558Z AUTO 18002KT 10SM CLR 15/03 A3025 RMK AO2 SLP204 T01510027 $
Loading
Personal Weather Stations






























Interactive Weather Map
Tropical Storm Tracking
New forecast layout! Learn more

10-Day Weather Forecast

Advertisements
Track Severe Weather on mobile